Time;durP1;ratioP1;P1;durP2;ratioP2;P2;SDS_P1;SDS_P2;PMS_P1;PMS_P2;Temp;Humidity;BMP_temperature;BMP_pressure;BME280_temperature;BME280_humidity;BME280_pressure;Samples;Min_cycle;Max_cycle;Signal;HPM_P1;HPM_P2
2023/05/03 00:08:40;;;;;;;27.00;18.90;;;;;;;11.41;73.52;99260.13;437401;1253;110584;-41
2023/05/03 00:18:47;;;;;;;25.40;20.20;;;;;;;11.49;73.77;99253.97;437321;1253;107376;-42
2023/05/03 00:28:52;;;;;;;27.70;21.90;;;;;;;11.52;73.98;99253.58;437248;1252;97881;-42
2023/05/03 00:38:56;;;;;;;27.00;20.00;;;;;;;11.51;74.27;99252.00;437425;1248;107416;-43
2023/05/03 00:49:00;;;;;;;34.60;23.70;;;;;;;11.44;74.54;99250.48;437275;1247;97527;-43
2023/05/03 00:59:08;;;;;;;29.90;21.70;;;;;;;11.34;74.62;99249.23;437275;1261;109373;-42
2023/05/03 01:09:14;;;;;;;31.00;21.10;;;;;;;11.31;74.89;99243.84;437993;1250;107529;-42
2023/05/03 01:19:28;;;;;;;30.40;21.60;;;;;;;11.30;74.98;99248.88;436474;1252;97758;-43
2023/05/03 01:29:31;;;;;;;28.40;20.00;;;;;;;11.33;75.19;99254.54;436421;1253;108358;-43
2023/05/03 01:39:36;;;;;;;25.30;19.60;;;;;;;11.33;75.34;99266.44;436325;1253;97971;-43
2023/05/03 01:49:40;;;;;;;25.80;19.20;;;;;;;11.29;75.35;99266.80;436406;1261;110965;-43
2023/05/03 01:59:44;;;;;;;25.10;18.60;;;;;;;11.12;75.33;99270.15;436298;1248;107410;-41
2023/05/03 02:09:47;;;;;;;22.00;17.40;;;;;;;10.88;75.35;99275.23;436728;1261;96615;-42
2023/05/03 02:19:54;;;;;;;23.00;18.90;;;;;;;10.61;75.25;99282.21;436459;1251;97890;-42
2023/05/03 02:29:58;;;;;;;22.80;17.40;;;;;;;10.49;75.45;99282.86;436701;1261;108329;-42
2023/05/03 02:50:06;;;;;;;21.20;12.80;;;;;;;10.53;75.86;99289.35;436424;1261;108204;-43
2023/05/03 03:10:19;;;;;;;18.30;11.80;;;;;;;10.47;76.05;99316.69;436573;1253;109454;-42
2023/05/03 03:20:23;;;;;;;17.30;12.60;;;;;;;10.31;76.08;99317.37;436467;1251;108546;-41
2023/05/03 03:30:26;;;;;;;16.90;12.10;;;;;;;10.17;76.02;99320.91;436283;1251;97910;-42
2023/05/03 03:40:30;;;;;;;17.50;12.60;;;;;;;10.09;76.06;99327.11;433468;1251;4141583;-42
2023/05/03 03:50:34;;;;;;;11.00;9.00;;;;;;;10.05;76.29;99327.90;436497;1251;108378;-42
2023/05/03 04:00:38;;;;;;;14.70;9.00;;;;;;;9.99;76.31;99335.58;436523;1251;98511;-42
2023/05/03 04:10:42;;;;;;;15.50;9.60;;;;;;;10.00;76.54;99360.33;436404;1251;108093;-42
2023/05/03 04:20:46;;;;;;;17.00;9.80;;;;;;;10.07;76.70;99367.36;436503;1251;98170;-42
2023/05/03 04:30:50;;;;;;;15.10;9.40;;;;;;;10.10;76.70;99376.02;436387;1248;110586;-41
2023/05/03 04:40:54;;;;;;;12.50;9.50;;;;;;;10.02;76.76;99384.34;436539;1247;111482;-41
2023/05/03 04:50:57;;;;;;;12.80;8.30;;;;;;;9.98;76.74;99385.80;436456;1253;97884;-42
2023/05/03 05:01:02;;;;;;;13.10;7.60;;;;;;;10.15;76.83;99393.56;436200;1251;107910;-42
2023/05/03 05:11:06;;;;;;;11.90;7.60;;;;;;;10.45;76.69;99388.16;436408;1251;97889;-42
2023/05/03 05:21:13;;;;;;;12.50;8.30;;;;;;;10.99;76.64;99398.77;436535;1251;109859;-42
2023/05/03 05:31:17;;;;;;;17.30;7.80;;;;;;;11.01;76.45;99404.78;436421;1251;108277;-42
2023/05/03 05:41:21;;;;;;;15.70;9.20;;;;;;;11.14;76.34;99412.45;436544;1247;98110;-43
2023/05/03 05:51:29;;;;;;;17.10;8.40;;;;;;;11.22;76.09;99424.36;436447;1251;109971;-42
2023/05/03 06:01:33;;;;;;;25.60;10.10;;;;;;;11.43;75.98;99437.24;436414;1247;107243;-42
2023/05/03 06:11:37;;;;;;;17.10;10.20;;;;;;;11.37;75.93;99444.79;436490;1248;97877;-41
2023/05/03 06:21:42;;;;;;;18.70;9.60;;;;;;;11.06;75.88;99458.62;436512;1251;97486;-42
2023/05/03 06:31:45;;;;;;;16.90;9.80;;;;;;;10.90;75.87;99468.52;436442;1251;108672;-42
2023/05/03 06:41:49;;;;;;;23.90;9.80;;;;;;;10.93;75.90;99462.94;436504;1251;98494;-42
2023/05/03 06:51:53;;;;;;;18.70;9.10;;;;;;;11.04;75.87;99470.77;436571;1251;108477;-41
2023/05/03 07:01:57;;;;;;;16.50;10.40;;;;;;;11.03;75.69;99481.64;436431;1251;98236;-41
2023/05/03 07:12:01;;;;;;;19.80;11.30;;;;;;;11.22;75.57;99495.43;436508;1247;109488;-44
2023/05/03 07:22:16;;;;;;;15.80;9.20;;;;;;;11.44;75.32;99499.29;436377;1251;97912;-42
2023/05/03 07:32:23;;;;;;;15.00;9.30;;;;;;;11.88;75.18;99503.62;436461;1251;97938;-42
2023/05/03 07:42:27;;;;;;;18.20;9.30;;;;;;;11.89;74.68;99508.58;436477;1251;110703;-42
2023/05/03 07:52:30;;;;;;;15.50;8.70;;;;;;;11.89;74.31;99516.85;436665;1247;108307;-43
2023/05/03 08:02:34;;;;;;;14.40;8.00;;;;;;;12.08;73.90;99514.64;436549;1247;97871;-41
2023/05/03 08:12:39;;;;;;;17.40;7.80;;;;;;;12.45;73.54;99513.02;436338;1251;108391;-42
2023/05/03 08:22:45;;;;;;;11.90;8.60;;;;;;;12.27;72.67;99506.64;436448;1247;97884;-40
2023/05/03 08:32:50;;;;;;;13.50;7.30;;;;;;;12.20;72.46;99508.55;436460;1251;110533;-42
2023/05/03 08:42:55;;;;;;;17.10;9.00;;;;;;;12.43;72.12;99514.23;436534;1247;108512;-42
2023/05/03 08:52:59;;;;;;;14.10;10.00;;;;;;;12.18;71.44;99525.19;436544;1250;97861;-41
2023/05/03 09:03:03;;;;;;;15.20;9.70;;;;;;;11.89;71.40;99534.61;436511;1251;107595;-42
2023/05/03 09:13:08;;;;;;;14.70;8.40;;;;;;;12.10;71.14;99548.16;436615;1247;97534;-41
2023/05/03 09:23:12;;;;;;;15.60;7.80;;;;;;;12.18;70.30;99551.95;436760;1251;110166;-41
2023/05/03 09:33:28;;;;;;;12.80;6.80;;;;;;;12.34;69.74;99557.19;436305;1251;107581;-42
2023/05/03 09:43:32;;;;;;;20.80;8.30;;;;;;;12.60;68.77;99557.92;436427;1251;98262;-42
2023/05/03 09:53:38;;;;;;;9.80;5.70;;;;;;;12.74;67.82;99565.45;436528;1250;97916;-43
2023/05/03 10:03:43;;;;;;;14.30;4.90;;;;;;;12.69;66.45;99567.21;436549;1247;106700;-43
2023/05/03 10:13:47;;;;;;;8.60;4.70;;;;;;;13.25;66.14;99557.83;436451;1251;97878;-41
2023/05/03 10:34:20;;;;;;;5.90;3.50;;;;;;;13.82;63.85;99553.70;436500;1250;97867;-43
2023/05/03 10:44:27;;;;;;;5.50;3.20;;;;;;;13.85;61.98;99555.70;436495;1251;108758;-42
2023/05/03 10:54:30;;;;;;;3.90;3.30;;;;;;;13.87;60.45;99549.56;436386;1248;108555;-43
2023/05/03 11:04:34;;;;;;;5.40;3.50;;;;;;;14.04;58.64;99541.80;436433;1252;97937;-43
2023/05/03 11:24:42;;;;;;;5.80;2.70;;;;;;;14.23;56.53;99545.54;436455;1247;107713;-43
2023/05/03 11:34:46;;;;;;;6.50;2.60;;;;;;;14.91;57.13;99534.61;436403;1251;97868;-42
2023/05/03 11:44:50;;;;;;;6.50;2.40;;;;;;;15.04;55.60;99540.45;436628;1250;97864;-42
2023/05/03 11:54:56;;;;;;;4.00;2.90;;;;;;;14.74;55.41;99541.17;436408;1251;107774;-44
2023/05/03 12:05:00;;;;;;;2.50;2.10;;;;;;;15.07;55.91;99534.24;436665;1248;98103;-43
2023/05/03 12:15:06;;;;;;;3.90;2.50;;;;;;;15.50;53.60;99525.54;436571;1251;110790;-42
2023/05/03 12:25:11;;;;;;;3.40;2.40;;;;;;;14.58;52.72;99522.02;436418;1251;107690;-43
2023/05/03 12:35:19;;;;;;;3.70;2.80;;;;;;;14.55;53.36;99514.83;436450;1247;98243;-42
2023/05/03 12:45:26;;;;;;;5.30;2.40;;;;;;;14.72;52.85;99507.14;436457;1247;106836;-43
2023/05/03 13:05:36;;;;;;;4.00;2.20;;;;;;;14.60;51.62;99492.23;435706;1249;110408;-41
2023/05/03 13:15:42;;;;;;;4.80;2.40;;;;;;;15.20;51.23;99486.69;435528;1253;108191;-45
2023/05/03 13:25:46;;;;;;;8.20;5.40;;;;;;;15.31;50.96;99480.48;435738;1253;97691;-42
2023/05/03 13:35:49;;;;;;;3.30;2.30;;;;;;;15.42;49.95;99473.60;435718;1253;96626;-45
2023/05/03 13:45:59;;;;;;;4.80;2.70;;;;;;;15.51;49.91;99463.30;435624;1250;108334;-42
2023/05/03 13:56:03;;;;;;;4.00;2.50;;;;;;;15.65;49.34;99463.92;435701;1253;97882;-42
2023/05/03 14:16:14;;;;;;;2.90;2.60;;;;;;;15.04;49.32;99465.77;435522;1250;109383;-43
2023/05/03 14:26:25;;;;;;;6.10;2.60;;;;;;;15.14;49.24;99459.98;435708;1253;97773;-43
2023/05/03 14:36:33;;;;;;;3.10;2.30;;;;;;;15.14;48.24;99455.99;435639;1253;97858;-43
2023/05/03 14:46:37;;;;;;;5.40;2.20;;;;;;;15.28;48.03;99448.20;435647;1249;107493;-42
2023/05/03 14:56:41;;;;;;;6.50;2.00;;;;;;;15.54;47.64;99452.63;435560;1253;97870;-42
2023/05/03 15:06:45;;;;;;;6.00;2.30;;;;;;;15.41;45.79;99462.96;435452;1253;97861;-43
2023/05/03 15:16:49;;;;;;;4.40;2.70;;;;;;;15.32;45.74;99457.26;435428;1248;107095;-42
2023/05/03 15:26:53;;;;;;;10.50;2.80;;;;;;;15.20;45.57;99467.28;435723;1253;96650;-42
2023/05/03 15:36:56;;;;;;;3.40;1.90;;;;;;;14.77;45.85;99471.11;435679;1251;98006;-43
2023/05/03 15:57:04;;;;;;;13.60;6.00;;;;;;;14.04;46.36;99476.07;435416;1253;97815;-42
2023/05/03 16:07:11;;;;;;;8.10;2.10;;;;;;;13.73;46.76;99479.59;435471;1253;97877;-43
2023/05/03 16:17:18;;;;;;;5.90;2.30;;;;;;;13.55;46.32;99476.27;435449;1249;107202;-42
2023/05/03 16:27:22;;;;;;;5.50;2.70;;;;;;;13.44;45.99;99474.71;435629;1250;99802;-42
2023/05/03 16:37:26;;;;;;;3.10;2.00;;;;;;;13.18;45.64;99475.85;435557;1250;108261;-42
2023/05/03 16:47:32;;;;;;;3.60;2.30;;;;;;;13.05;46.25;99481.98;435569;1250;96664;-43
2023/05/03 16:57:39;;;;;;;11.80;8.80;;;;;;;12.95;46.66;99485.45;435447;1253;111261;-41
2023/05/03 17:07:46;;;;;;;10.60;3.90;;;;;;;12.79;47.34;99485.66;435474;1251;108140;-42
2023/05/03 17:27:54;;;;;;;9.00;3.20;;;;;;;12.45;48.05;99492.38;435519;1250;108365;-42
2023/05/03 17:37:58;;;;;;;10.50;5.30;;;;;;;12.22;48.58;99494.77;435590;1250;98341;-42
2023/05/03 17:48:05;;;;;;;8.30;3.10;;;;;;;11.95;49.11;99496.48;435471;1251;109616;-41
2023/05/03 17:58:10;;;;;;;4.60;3.00;;;;;;;11.63;49.75;99502.94;435599;1253;107124;-44
2023/05/03 18:08:14;;;;;;;4.30;2.60;;;;;;;11.22;50.28;99511.03;435594;1250;96617;-43
2023/05/03 18:18:22;;;;;;;5.30;3.40;;;;;;;10.83;50.96;99517.03;435577;1251;108411;-43
2023/05/03 18:28:26;;;;;;;5.90;3.10;;;;;;;10.50;51.52;99525.95;435389;1251;108701;-43
2023/05/03 18:38:30;;;;;;;6.00;3.60;;;;;;;10.17;52.41;99529.21;435514;1253;98370;-42
2023/05/03 18:48:34;;;;;;;5.90;3.10;;;;;;;9.78;53.14;99543.17;435685;1253;110581;-42
2023/05/03 18:58:38;;;;;;;18.90;7.80;;;;;;;9.41;53.95;99545.27;435385;1253;96682;-42
2023/05/03 19:08:42;;;;;;;28.80;15.40;;;;;;;9.01;54.60;99550.25;435569;1253;97880;-41
2023/05/03 19:18:46;;;;;;;45.30;23.60;;;;;;;8.71;55.66;99547.63;435484;1253;96630;-41
2023/05/03 19:38:54;;;;;;;71.80;37.80;;;;;;;8.50;57.13;99557.16;435465;1250;97973;-42
2023/05/03 19:48:58;;;;;;;91.40;48.20;;;;;;;8.33;57.68;99556.32;435501;1253;110639;-43
2023/05/03 19:59:05;;;;;;;61.90;36.30;;;;;;;7.93;58.28;99555.88;435476;1250;98185;-42
2023/05/03 20:09:09;;;;;;;52.20;31.30;;;;;;;7.50;59.01;99552.23;435445;1253;97786;-42
2023/05/03 20:19:13;;;;;;;44.10;24.80;;;;;;;7.26;59.66;99549.95;435475;1253;96767;-42
2023/05/03 20:29:17;;;;;;;63.70;31.70;;;;;;;7.17;60.41;99551.19;435455;1263;108625;-42
2023/05/03 20:39:21;;;;;;;132.60;60.90;;;;;;;7.12;60.88;99549.80;435336;1253;97901;-41
2023/05/03 20:49:25;;;;;;;70.00;32.70;;;;;;;6.78;61.28;99546.51;435529;1253;111341;-41
2023/05/03 20:59:29;;;;;;;69.70;32.60;;;;;;;6.43;62.07;99540.57;435447;1262;108238;-42
2023/05/03 21:09:58;;;;;;;68.90;32.20;;;;;;;6.34;62.72;99542.45;435593;1253;97883;-42
2023/05/03 21:20:01;;;;;;;62.70;26.20;;;;;;;6.25;62.94;99539.42;435418;1257;112259;-41
2023/05/03 21:30:19;;;;;;;69.70;32.10;;;;;;;6.19;63.32;99537.40;435672;1253;108495;-43
2023/05/03 21:40:22;;;;;;;541.90;173.80;;;;;;;6.11;63.92;99537.30;435516;1253;98181;-41
2023/05/03 21:50:26;;;;;;;120.10;51.00;;;;;;;5.78;63.91;99542.89;435684;1253;107530;-42
2023/05/03 22:00:30;;;;;;;61.10;32.00;;;;;;;5.42;64.27;99542.90;435462;1263;97881;-42
2023/05/03 22:10:34;;;;;;;53.50;26.30;;;;;;;5.41;64.85;99538.88;435405;1263;97960;-45
2023/05/03 22:20:37;;;;;;;46.60;25.70;;;;;;;5.41;65.25;99539.60;435436;1254;107359;-42
2023/05/03 22:30:41;;;;;;;212.00;85.00;;;;;;;5.37;65.50;99540.38;435455;1249;97999;-42
2023/05/03 22:50:52;;;;;;;85.90;40.00;;;;;;;4.88;65.87;99541.23;435450;1249;108341;-43
2023/05/03 23:00:57;;;;;;;45.30;25.40;;;;;;;4.53;65.98;99534.59;435427;1251;97899;-42
2023/05/03 23:11:00;;;;;;;46.00;24.90;;;;;;;4.50;66.66;99528.41;435536;1255;107971;-43
2023/05/03 23:21:04;;;;;;;59.10;27.40;;;;;;;4.57;67.00;99528.63;435423;1253;97925;-42
2023/05/03 23:31:08;;;;;;;66.80;34.30;;;;;;;4.42;66.91;99524.83;435377;1251;110873;-40
2023/05/03 23:41:12;;;;;;;91.30;41.40;;;;;;;4.19;67.32;99522.30;435517;1254;108359;-41
2023/05/03 23:51:16;;;;;;;83.30;42.20;;;;;;;4.03;67.59;99519.33;435515;1254;97906;-41
